Latest Weather Observations for Milingimbi

IDD60801

Issued at 6:41 am CST Wednesday 27 May 2020 (issued every 10 minutes, with the page automatically refreshed every 10 minutes)

About weather observations | Map of weather stations | Latest weather observations for NT | Other Formats
Station Details ID: 014404 Name: MILINGIMBI AIRPORT Lat: -12.09 Lon: 134.89 Height: 15.0 m
Data from the previous 72 hours. | See also: Recent months at Milingimbi
Date/Time
CST
Temp
°C
App
Temp
°C
Dew
Point
°C
Rel
Hum
%
Delta-T
°C
Wind Press
QNH
hPa
Press
MSL
hPa
Rain since
9am
mm
Dir  Spd
km/h
Gust
km/h
Spd
kts
Gust
kts
27/06:30am 18.8 19.4 16.9 89 1.1 SE 9 15 5 8 1015.9 1015.8 0.0
27/06:00am 18.9 19.5 16.9 88 1.2 SSE 9 13 5 7 1015.6 1015.5 0.0
27/05:30am 19.1 20.0 16.7 86 1.4 SSE 7 13 4 7 1015.3 1015.2 0.0
27/05:00am 19.2 19.7 16.6 85 1.6 SSE 9 13 5 7 1015.1 1015.0 0.0
27/04:30am 19.5 20.5 16.9 85 1.6 SSE 7 13 4 7 1014.9 1014.8 0.0
27/04:00am 19.5 20.4 16.5 83 1.8 SE 7 11 4 6 1014.8 1014.7 0.0
27/03:30am 19.8 20.6 16.4 81 2.0 SE 7 11 4 6 1014.9 1014.8 0.0
27/03:00am 20.2 20.6 16.4 79 2.3 SSE 9 13 5 7 1014.9 1014.8 0.0
27/02:30am 20.5 21.0 16.5 78 2.4 SE 9 15 5 8 1015.1 1015.0 0.0
27/02:00am 20.7 21.1 16.3 76 2.7 SE 9 15 5 8 1015.1 1015.0 0.0
27/01:30am 21.1 21.2 16.5 75 2.8 SSE 11 15 6 8 1015.4 1015.3 0.0
27/01:00am 21.6 22.0 16.3 72 3.2 SE 9 13 5 7 1015.6 1015.5 0.0
27/12:30am 22.5 22.9 17.2 72 3.3 ESE 11 19 6 10 1015.8 1015.7 0.0
27/12:00am 22.8 22.7 17.0 70 3.6 ESE 13 22 7 12 1015.9 1015.8 0.0
 
Date/Time
CST
Temp
°C
App
Temp
°C
Dew
Point
°C
Rel
Hum
%
Delta-T
°C
Wind Press
QNH
hPa
Press
MSL
hPa
Rain since
9am
mm
Dir  Spd
km/h
Gust
km/h
Spd
kts
Gust
kts
26/11:30pm 23.1 22.6 16.9 68 3.8 ESE 15 24 8 13 1016.1 1016.0 0.0
26/11:00pm 23.2 23.0 16.7 67 4.0 ESE 13 26 7 14 1016.2 1016.1 0.0
26/10:30pm 22.8 23.2 16.4 67 3.9 SE 9 15 5 8 1016.3 1016.2 0.0
26/10:00pm 23.0 22.4 15.6 63 4.4 SE 13 19 7 10 1016.2 1016.1 0.0
26/09:30pm 23.2 22.4 15.0 60 4.9 SE 13 19 7 10 1016.0 1015.9 0.0
26/09:00pm 23.6 22.7 14.9 58 5.2 SE 13 20 7 11 1015.9 1015.8 0.0
26/08:30pm 24.1 24.2 16.6 63 4.6 SE 11 17 6 9 1015.5 1015.4 0.0
26/08:00pm 22.2 25.1 19.0 82 2.0 ESE 2 7 1 4 1015.1 1015.0 0.0
26/07:30pm 22.7 25.4 18.7 78 2.5 NE 2 6 1 3 1014.7 1014.6 0.0
26/07:00pm 23.2 26.2 18.5 75 3.0 CALM 0 0 0 0 1014.4 1014.3 0.0
26/06:30pm 24.2 26.4 18.4 70 3.7 NE 4 6 2 3 1014.0 1013.9 0.0
26/06:00pm 25.9 27.7 18.3 63 4.8 NE 6 7 3 4 1013.6 1013.5 0.0
26/05:30pm 27.0 28.3 17.5 56 6.0 ENE 7 11 4 6 1013.2 1013.1 0.0
26/05:00pm 27.5 28.5 17.7 55 6.2 ENE 9 13 5 7 1013.1 1013.0 0.0
26/04:30pm 28.2 28.9 17.1 51 7.0 E 9 17 5 9 1012.8 1012.7 0.0
26/04:00pm 28.3 29.2 17.5 52 6.8 ENE 9 15 5 8 1012.9 1012.8 0.0
26/03:30pm 29.0 29.1 17.5 49 7.3 E 13 19 7 10 1012.8 1012.7 0.0
26/03:00pm 28.8 28.5 16.4 47 7.7 E 13 22 7 12 1012.9 1012.8 0.0
26/02:30pm 29.1 28.6 16.0 45 8.1 E 13 22 7 12 1013.2 1013.1 0.0
26/02:00pm 29.0 28.6 16.2 46 7.9 E 13 22 7 12 1013.5 1013.4 0.0
26/01:30pm 28.1 27.4 16.4 49 7.3 E 15 24 8 13 1014.0 1013.9 0.0
26/01:00pm 27.9 27.4 16.8 50 6.9 E 15 24 8 13 1014.7 1014.6 0.0
26/12:30pm 28.8 29.1 18.0 52 6.9 ESE 13 24 7 13 1015.3 1015.2 0.0
26/12:00pm 28.6 29.4 18.1 53 6.7 ESE 11 20 6 11 1015.9 1015.8 0.0
26/11:30am 26.8 26.6 16.7 54 6.3 E 13 20 7 11 1016.5 1016.4 0.0
26/11:00am 27.3 26.5 17.2 54 6.3 ESE 17 26 9 14 1016.7 1016.6 0.0
26/10:30am 26.8 26.0 17.0 55 6.1 ESE 17 28 9 15 1017.0 1016.9 0.0
26/10:00am 26.4 26.2 17.5 58 5.6 ESE 15 24 8 13 1017.1 1017.0 0.0
26/09:30am 25.6 25.3 17.3 60 5.2 ESE 15 20 8 11 1017.3 1017.2 0.0
26/09:00am 24.3 23.3 16.6 62 4.7 ESE 17 26 9 14 1017.3 1017.2 0.0
26/08:30am 23.2 23.2 16.3 65 4.2 SE 11 20 6 11 1017.2 1017.1 0.0
26/08:00am 21.2 21.4 15.7 71 3.3 SE 9 15 5 8 1016.9 1016.8 0.0
26/07:30am 19.7 19.6 16.0 79 2.2 SE 11 15 6 8 1016.7 1016.6 0.0
26/07:00am 19.2 19.4 15.7 80 2.1 SE 9 17 5 9 1016.5 1016.4 0.0
26/06:30am 19.7 19.8 15.6 77 2.4 SE 9 17 5 9 1016.3 1016.2 0.0
26/06:00am 20.1 20.2 15.5 75 2.7 SSE 9 15 5 8 1016.1 1016.0 0.0
26/05:30am 20.2 20.0 15.6 75 2.7 SSE 11 15 6 8 1015.8 1015.7 0.0
26/05:00am 19.9 20.1 15.7 77 2.5 SSE 9 13 5 7 1015.5 1015.4 0.0
26/04:30am 19.6 19.8 15.7 78 2.3 SSE 9 17 5 9 1015.4 1015.3 0.0
26/04:00am 19.5 19.6 15.4 77 2.4 SSE 9 13 5 7 1015.2 1015.1 0.0
26/03:30am 19.6 19.7 15.5 77 2.4 SSE 9 15 5 8 1015.2 1015.1 0.0
26/03:00am 19.7 19.7 15.1 75 2.7 SSE 9 13 5 7 1015.4 1015.3 0.0
26/02:30am 20.1 20.1 15.1 73 2.9 SSE 9 15 5 8 1015.7 1015.6 0.0
26/02:00am 20.5 20.1 15.3 72 3.1 SSE 11 17 6 9 1015.8 1015.7 0.0
26/01:30am 20.7 20.3 15.3 71 3.2 SE 11 17 6 9 1015.9 1015.8 0.0
26/01:00am 21.0 20.6 15.3 70 3.4 SE 11 17 6 9 1016.2 1016.1 0.0
26/12:30am 21.2 20.8 15.3 69 3.5 SE 11 15 6 8 1016.4 1016.3 0.0
26/12:00am 22.1 21.6 15.9 68 3.7 SSE 13 19 7 10 1016.7 1016.6 0.0
 
Date/Time
CST
Temp
°C
App
Temp
°C
Dew
Point
°C
Rel
Hum
%
Delta-T
°C
Wind Press
QNH
hPa
Press
MSL
hPa
Rain since
9am
mm
Dir  Spd
km/h
Gust
km/h
Spd
kts
Gust
kts
25/11:30pm 22.7 22.2 16.0 66 4.0 ESE 13 26 7 14 1016.7 1016.6 0.0
25/11:00pm 22.8 22.3 15.9 65 4.2 ESE 13 22 7 12 1016.8 1016.7 0.0
25/10:30pm 23.1 21.8 15.9 64 4.3 ESE 17 24 9 13 1016.6 1016.5 0.0
25/10:00pm 23.1 23.0 15.9 64 4.3 ESE 11 19 6 10 1016.2 1016.1 0.0
25/09:30pm 23.5 22.1 15.5 60 4.8 ESE 17 28 9 15 1016.3 1016.2 0.0
25/09:00pm 23.8 22.8 15.6 60 4.9 ESE 15 22 8 12 1016.2 1016.1 0.0
25/08:30pm 23.9 23.8 15.9 61 4.8 SE 11 20 6 11 1016.1 1016.0 0.0
25/08:00pm 23.8 24.3 16.6 64 4.4 SSE 9 19 5 10 1016.0 1015.9 0.0
25/07:30pm 23.4 24.7 17.2 68 3.8 ESE 6 9 3 5 1015.6 1015.5 0.0
25/07:00pm 23.5 25.9 17.0 67 4.0 CALM 0 0 0 0 1015.2 1015.1 0.0
25/06:30pm 24.7 26.7 16.9 62 4.8 NE 2 7 1 4 1015.0 1014.9 0.0
25/06:00pm 25.5 26.4 16.6 58 5.5 NE 7 9 4 5 1014.7 1014.6 0.0
25/05:30pm 27.0 27.6 15.7 50 6.9 E 7 11 4 6 1014.4 1014.3 0.0
25/05:00pm 27.9 28.2 14.9 45 7.9 ENE 7 9 4 5 1014.0 1013.9 0.0
25/04:30pm 28.3 27.9 14.2 42 8.5 E 9 17 5 9 1013.7 1013.6 0.0
25/04:00pm 28.6 27.5 14.4 41 8.6 E 13 22 7 12 1013.5 1013.4 0.0
25/03:30pm 28.1 27.2 13.6 41 8.6 E 11 19 6 10 1013.4 1013.3 0.0
25/03:00pm 28.3 27.3 13.4 40 8.8 E 11 20 6 11 1013.3 1013.2 0.0
25/02:30pm 27.6 26.6 13.5 41 8.3 ENE 11 22 6 12 1013.6 1013.5 0.0
25/02:00pm 27.9 26.8 14.2 43 8.2 E 13 22 7 12 1013.8 1013.7 0.0
25/01:30pm 28.4 26.9 14.3 42 8.5 E 15 24 8 13 1014.0 1013.9 0.0
25/01:00pm 27.9 25.3 13.1 40 8.7 ESE 19 30 10 16 1014.2 1014.1 0.0
25/12:30pm 27.2 24.2 12.4 40 8.6 ESE 20 30 11 16 1014.9 1014.8 0.0
25/12:00pm 27.5 25.0 13.4 41 8.3 ESE 19 26 10 14 1015.5 1015.4 0.0
25/11:30am 27.1 24.1 12.7 41 8.4 SE 20 28 11 15 1015.9 1015.8 0.0
25/11:00am 26.4 23.4 12.5 42 8.1 SE 20 32 11 17 1016.5 1016.4 0.0
25/10:30am 26.1 23.1 12.5 42 7.9 ESE 20 33 11 18 1016.8 1016.7 0.0
25/10:00am 25.4 22.3 12.3 44 7.5 ESE 20 33 11 18 1017.0 1016.9 0.0
25/09:30am 24.1 21.2 12.4 48 6.7 SE 19 32 10 17 1017.2 1017.1 0.0
25/09:00am 23.0 20.1 12.3 51 6.1 SE 19 30 10 16 1017.4 1017.3 0.0
25/08:30am 21.7 19.3 12.8 57 5.1 SE 17 22 9 12 1017.3 1017.2 0.0
25/08:00am 20.2 19.0 12.7 62 4.2 SSE 11 19 6 10 1017.4 1017.3 0.0
25/07:30am 19.0 17.9 13.0 68 3.4 SSE 11 15 6 8 1017.5 1017.4 0.0
25/07:00am 19.4 18.3 13.1 67 3.6 SSE 11 17 6 9 1017.6 1017.5 0.0
25/06:30am 19.3 18.2 13.0 67 3.6 SSE 11 15 6 8 1017.6 1017.5 0.0
25/06:00am 19.5 18.4 13.2 67 3.6 S 11 17 6 9 1017.3 1017.2 0.0
25/05:30am 19.6 18.9 13.3 67 3.6 S 9 17 5 9 1017.1 1017.0 0.0
25/05:00am 19.8 19.1 13.3 66 3.7 S 9 19 5 10 1017.1 1017.0 0.0
25/04:30am 19.9 18.8 13.1 65 3.9 SSE 11 17 6 9 1016.9 1016.8 0.0
25/04:00am 19.9 18.8 13.1 65 3.9 SSE 11 17 6 9 1016.9 1016.8 0.0
25/03:30am 19.9 18.8 13.1 65 3.9 SSE 11 17 6 9 1017.1 1017.0 0.0
25/03:00am 19.8 17.9 13.0 65 3.8 SSE 15 24 8 13 1017.2 1017.1 0.0
25/02:30am 19.8 18.7 13.0 65 3.8 SSE 11 20 6 11 1017.6 1017.5 0.0
25/02:00am 19.9 18.8 13.1 65 3.9 SSE 11 17 6 9 1018.1 1018.0 0.0
25/01:30am 20.0 18.5 13.2 65 3.9 S 13 19 7 10 1018.2 1018.1 0.0
25/01:00am 20.0 19.3 13.2 65 3.9 S 9 15 5 8 1018.3 1018.2 0.0
25/12:30am 20.0 19.5 13.7 67 3.6 S 9 15 5 8 1018.3 1018.2 0.0
25/12:00am 19.8 19.3 13.7 68 3.5 S 9 15 5 8 1018.0 1017.9 0.0
 
Date/Time
CST
Temp
°C
App
Temp
°C
Dew
Point
°C
Rel
Hum
%
Delta-T
°C
Wind Press
QNH
hPa
Press
MSL
hPa
Rain since
9am
mm
Dir  Spd
km/h
Gust
km/h
Spd
kts
Gust
kts
24/11:30pm 19.9 19.3 13.6 67 3.6 SSE 9 15 5 8 1017.9 1017.8 0.0
24/11:00pm 20.3 19.3 13.5 65 3.9 SSE 11 17 6 9 1017.9 1017.8 0.0
24/10:30pm 20.4 19.5 13.6 65 3.9 SSE 11 17 6 9 1017.8 1017.7 0.0
24/10:00pm 20.8 19.9 13.7 64 4.1 SSE 11 17 6 9 1017.5 1017.4 0.0
24/09:30pm 21.4 20.1 13.8 62 4.4 SE 13 22 7 12 1017.2 1017.1 0.0
24/09:00pm 21.8 20.5 13.7 60 4.7 SSE 13 20 7 11 1017.0 1016.9 0.0
24/08:30pm 22.2 20.8 13.5 57 5.0 SE 13 20 7 11 1016.6 1016.5 0.0
24/08:00pm 22.7 21.0 13.5 56 5.3 SE 15 22 8 12 1016.5 1016.4 0.0
24/07:30pm 23.2 21.4 13.4 54 5.7 SE 15 24 8 13 1016.1 1016.0 0.0
24/07:00pm 23.7 21.6 13.6 53 5.9 SE 17 26 9 14 1015.7 1015.6 0.0
24/06:30pm 24.2 22.1 13.7 52 6.1 SE 17 28 9 15 1015.2 1015.1 0.0
24/06:00pm 24.9 23.3 13.8 50 6.5 SE 15 26 8 14 1014.9 1014.8 0.0
24/05:30pm 26.2 25.0 14.0 47 7.2 SE 13 22 7 12 1014.7 1014.6 0.0
24/05:00pm 27.1 24.9 13.4 42 8.1 SE 17 26 9 14 1014.5 1014.4 0.0
24/04:30pm 28.4 26.4 13.9 41 8.7 ESE 17 28 9 15 1014.1 1014.0 0.0
24/04:00pm 29.0 27.0 14.0 39 9.0 ESE 17 26 9 14 1014.1 1014.0 0.0
24/03:30pm 29.3 28.3 14.7 41 8.9 SE 13 22 7 12 1014.1 1014.0 0.0
24/03:00pm 29.1 26.6 14.1 40 9.0 ESE 20 33 11 18 1014.1 1014.0 0.0
24/02:30pm 29.3 27.1 14.3 40 9.1 ESE 19 32 10 17 1014.4 1014.3 0.0
24/02:00pm 28.8 26.5 14.6 42 8.6 ESE 20 32 11 17 1014.5 1014.4 0.0
24/01:30pm 29.1 26.8 14.1 40 9.0 ESE 19 28 10 15 1014.9 1014.8 0.0
24/01:00pm 29.0 26.6 14.4 41 8.8 ESE 20 35 11 19 1015.4 1015.3 0.0
24/12:30pm 28.0 24.9 13.5 41 8.6 ESE 22 35 12 19 1015.7 1015.6 0.0
24/12:00pm 27.0 23.5 13.4 43 8.0 ESE 24 35 13 19 1016.1 1016.0 0.0
24/11:30am 26.3 23.5 12.7 43 7.9 SE 19 28 10 15 1016.4 1016.3 0.0
24/11:00am 25.2 21.9 11.7 43 7.7 SE 20 32 11 17 1016.7 1016.6 0.0
24/10:30am 24.4 21.0 11.4 44 7.3 SE 20 32 11 17 1017.1 1017.0 0.0
24/10:00am 23.8 20.5 10.8 44 7.2 SSE 19 32 10 17 1017.6 1017.5 0.0
24/09:30am 22.0 18.8 9.9 46 6.5 SSE 17 32 9 17 1017.7 1017.6 0.0
24/09:00am 20.5 16.7 9.1 48 6.0 SSE 19 30 10 16 1017.8 1017.7 0.0
24/08:30am 19.8 17.1 9.1 50 5.6 S 13 20 7 11 1018.0 1017.9 0.0
24/08:00am 18.9 16.1 8.6 51 5.3 S 13 22 7 12 1017.7 1017.6 0.0
24/07:30am 18.8 16.0 8.5 51 5.3 S 13 20 7 11 1017.3 1017.2 0.0
24/07:00am 18.7 16.3 8.7 52 5.2 S 11 24 6 13 1017.0 1016.9 0.0

Other formats

Comma delimited format used in spreadsheet applications
http://www.bom.gov.au/fwo/IDD60801/IDD60801.94140.axf

JavaScript Object Notation format (JSON) in row-major order
http://www.bom.gov.au/fwo/IDD60801/IDD60801.94140.json

Data quality

Most of these data are generated automatically and are frequently updated. Quality checks on data are not normally performed. It is possible for incorrect values to appear. Refer to information at About Latest Weather Observations and please check the disclaimer before using these data.